Time;durP1;ratioP1;P1;durP2;ratioP2;P2;SDS_P1;SDS_P2;PMS_P1;PMS_P2;Temp;Humidity;BMP_temperature;BMP_pressure;BME280_temperature;BME280_humidity;BME280_pressure;Samples;Min_cycle;Max_cycle;Signal;HPM_P1;HPM_P2
2023/03/10 00:01:23;;;;;;;2.90;1.60;;;;;;;0.42;90.52;97484.27;105686;1259;62931;-26
2023/03/10 00:03:52;;;;;;;2.40;1.60;;;;;;;0.71;88.92;97496.04;105715;1254;61068;-26
2023/03/10 00:06:22;;;;;;;2.50;1.70;;;;;;;0.73;88.23;97502.05;105740;1254;74554;-26
2023/03/10 00:08:51;;;;;;;2.60;1.90;;;;;;;0.53;88.25;97507.84;105659;1254;75615;-26
2023/03/10 00:11:20;;;;;;;5.40;2.30;;;;;;;0.26;88.83;97507.80;105879;1257;73288;-26
2023/03/10 00:13:50;;;;;;;3.00;1.60;;;;;;;0.04;89.53;97506.45;105705;1255;62578;-26
2023/03/10 00:16:26;;;;;;;4.60;1.80;;;;;;;0.30;88.68;97509.42;105887;1253;61042;-26
2023/03/10 00:18:57;;;;;;;2.30;1.80;;;;;;;0.38;88.57;97514.59;105589;1254;74755;-26
2023/03/10 00:21:28;;;;;;;4.40;2.80;;;;;;;0.39;88.59;97504.95;105895;1254;75736;-26
2023/03/10 00:23:57;;;;;;;4.30;2.70;;;;;;;0.06;88.46;97498.65;105674;1260;73908;-25
2023/03/10 00:26:27;;;;;;;3.40;2.10;;;;;;;0.14;89.36;97507.35;105870;1259;62756;-25
2023/03/10 00:28:56;;;;;;;4.10;1.80;;;;;;;0.55;88.08;97513.83;105718;1259;61801;-25
2023/03/10 00:31:27;;;;;;;3.70;2.20;;;;;;;0.87;85.98;97508.52;105669;1259;74578;-25
2023/03/10 00:33:57;;;;;;;5.20;2.70;;;;;;;0.62;86.26;97514.92;105849;1257;75675;-25
2023/03/10 00:36:27;;;;;;;4.30;2.50;;;;;;;0.52;87.01;97530.55;105681;1254;74265;-25
2023/03/10 00:38:56;;;;;;;3.00;2.10;;;;;;;0.47;87.33;97529.34;105652;1260;61167;-25
2023/03/10 00:41:32;;;;;;;2.00;1.70;;;;;;;0.37;87.46;97523.88;105806;1254;61944;-25
2023/03/10 00:44:01;;;;;;;5.10;2.50;;;;;;;0.79;86.84;97518.92;105484;1254;74485;-25
2023/03/10 00:46:32;;;;;;;3.80;2.40;;;;;;;0.81;85.52;97506.66;105375;1260;75118;-25
2023/03/10 00:49:01;;;;;;;4.50;2.30;;;;;;;0.75;85.87;97502.30;105539;1259;72791;-25
2023/03/10 00:51:30;;;;;;;4.40;2.90;;;;;;;0.96;85.56;97507.40;105703;1254;61049;-26
2023/03/10 00:54:00;;;;;;;4.20;2.80;;;;;;;0.77;85.88;97515.45;105703;1260;61723;-25
2023/03/10 00:56:29;;;;;;;3.00;1.90;;;;;;;0.36;87.21;97525.42;105644;1259;73047;-25
2023/03/10 00:59:00;;;;;;;3.60;1.80;;;;;;;0.53;88.19;97524.16;105747;1254;75793;-25
2023/03/10 01:01:35;;;;;;;2.30;2.00;;;;;;;0.81;86.80;97533.14;105795;1257;73255;-25
2023/03/10 01:04:06;;;;;;;2.20;1.80;;;;;;;0.73;86.15;97543.74;105856;1257;61301;-25
2023/03/10 01:06:35;;;;;;;3.60;1.70;;;;;;;0.61;86.93;97552.20;105691;1256;61880;-25
2023/03/10 01:09:05;;;;;;;3.10;2.20;;;;;;;0.58;87.15;97550.84;105869;1254;74689;-25
2023/03/10 01:11:41;;;;;;;3.50;3.10;;;;;;;0.37;87.96;97555.09;105674;1254;75608;-25
2023/03/10 01:14:12;;;;;;;6.00;2.50;;;;;;;0.07;89.25;97565.31;105862;1254;74154;-26
2023/03/10 01:16:41;;;;;;;4.40;2.40;;;;;;;0.43;88.62;97568.52;105685;1253;61097;-26
2023/03/10 01:19:11;;;;;;;4.00;2.60;;;;;;;0.60;87.07;97560.64;105799;1254;61222;-26
2023/03/10 01:21:40;;;;;;;6.30;2.20;;;;;;;0.35;87.33;97561.72;105817;1254;74548;-26
2023/03/10 01:24:12;;;;;;;3.80;3.20;;;;;;;0.21;87.71;97561.55;105895;1254;75912;-26
2023/03/10 01:26:42;;;;;;;3.10;2.40;;;;;;;0.01;88.08;97556.15;105662;1261;74132;-27
2023/03/10 01:29:12;;;;;;;3.00;2.00;;;;;;;0.01;88.04;97559.58;105869;1257;61755;-26
2023/03/10 01:31:41;;;;;;;3.80;2.10;;;;;;;0.40;87.11;97568.42;105866;1257;61885;-26
2023/03/10 01:34:11;;;;;;;2.60;2.20;;;;;;;0.57;85.37;97571.41;105870;1254;74570;-26
2023/03/10 01:36:40;;;;;;;3.60;2.60;;;;;;;0.51;85.17;97570.98;105834;1257;75834;-26
2023/03/10 01:39:09;;;;;;;3.90;2.40;;;;;;;0.45;85.33;97564.70;105688;1254;74167;-26
2023/03/10 01:41:39;;;;;;;3.80;3.10;;;;;;;0.10;86.69;97573.03;105769;1253;61032;-26
2023/03/10 01:44:16;;;;;;;3.10;2.10;;;;;;;-0.03;87.92;97574.85;105341;1260;61996;-26
2023/03/10 01:46:51;;;;;;;3.50;2.00;;;;;;;0.58;86.19;97588.63;105378;1254;74509;-26
2023/03/10 01:49:39;;;;;;;4.50;2.00;;;;;;;0.93;84.24;97593.90;105610;1254;75818;-26
2023/03/10 01:52:12;;;;;;;5.60;3.00;;;;;;;0.70;83.65;97600.96;105492;1258;73167;-26
2023/03/10 01:55:06;;;;;;;2.80;2.30;;;;;;;0.43;84.66;97604.77;105407;1254;61087;-26
2023/03/10 01:57:43;;;;;;;7.90;2.80;;;;;;;0.31;85.16;97613.67;105808;1254;61635;-26
2023/03/10 02:00:15;;;;;;;6.50;4.20;;;;;;;-0.01;86.42;97620.96;105354;1254;73490;-26
2023/03/10 02:02:51;;;;;;;3.70;2.40;;;;;;;0.43;85.15;97613.28;105282;1254;75787;-26
2023/03/10 02:05:20;;;;;;;5.30;3.80;;;;;;;0.58;82.91;97619.49;105455;1259;73178;-26
2023/03/10 02:07:49;;;;;;;8.00;4.20;;;;;;;0.51;82.90;97627.12;105759;1252;61161;-26
2023/03/10 02:10:17;;;;;;;4.90;3.10;;;;;;;0.47;83.74;97636.98;105664;1253;61886;-26
2023/03/10 02:12:52;;;;;;;4.40;3.10;;;;;;;0.09;84.75;97642.34;105550;1257;74342;-26
2023/03/10 02:15:21;;;;;;;4.70;3.50;;;;;;;-0.08;85.78;97640.66;105838;1257;75762;-26
2023/03/10 02:17:50;;;;;;;4.70;2.40;;;;;;;0.23;85.68;97642.37;105826;1254;74365;-26
2023/03/10 02:20:39;;;;;;;6.30;2.90;;;;;;;0.49;83.65;97638.38;105766;1254;61621;-26
2023/03/10 02:23:09;;;;;;;11.90;7.30;;;;;;;0.25;83.49;97634.52;105543;1259;61119;-26
2023/03/10 02:25:44;;;;;;;8.60;5.50;;;;;;;0.04;84.97;97616.05;105382;1254;73856;-25
2023/03/10 02:28:15;;;;;;;4.00;2.90;;;;;;;-0.13;86.22;97570.34;105576;1254;74736;-26
2023/03/10 02:30:49;;;;;;;5.50;3.20;;;;;;;-0.37;87.27;97564.42;105734;1253;74045;-26
2023/03/10 02:33:24;;;;;;;3.60;2.40;;;;;;;-0.52;87.99;97576.90;105626;1259;62477;-25
2023/03/10 02:36:01;;;;;;;7.70;3.50;;;;;;;0.24;86.10;97576.54;105712;1253;60992;-26
2023/03/10 02:38:29;;;;;;;3.60;1.90;;;;;;;0.19;84.57;97585.26;105690;1254;75019;-25
2023/03/10 02:40:58;;;;;;;3.20;2.10;;;;;;;-0.35;84.69;97607.43;105690;1254;75711;-25
2023/03/10 02:43:31;;;;;;;5.90;3.30;;;;;;;-0.53;85.52;97620.29;105633;1253;73855;-25
2023/03/10 02:46:21;;;;;;;2.00;1.80;;;;;;;-0.78;85.62;97625.11;105650;1254;61348;-26
2023/03/10 02:48:53;;;;;;;4.40;2.70;;;;;;;-0.82;86.01;97634.05;105646;1259;61607;-25
2023/03/10 02:51:31;;;;;;;3.20;1.50;;;;;;;-0.27;84.59;97633.40;105785;1253;75288;-26
2023/03/10 02:54:01;;;;;;;2.40;1.80;;;;;;;-0.51;84.00;97616.24;105726;1258;74247;-25
2023/03/10 02:56:33;;;;;;;6.90;4.60;;;;;;;-0.10;83.84;97621.65;105820;1257;74445;-26
2023/03/10 02:59:04;;;;;;;7.80;4.90;;;;;;;-0.33;83.67;97636.63;105820;1254;61084;-26
2023/03/10 03:01:33;;;;;;;5.10;3.10;;;;;;;-0.34;84.07;97640.29;105659;1254;61058;-26
2023/03/10 03:04:02;;;;;;;7.20;3.80;;;;;;;-0.44;84.41;97635.09;105726;1259;75538;-25
2023/03/10 03:06:30;;;;;;;4.60;2.20;;;;;;;-0.37;84.40;97638.64;105676;1259;74840;-26
2023/03/10 03:09:01;;;;;;;2.60;2.10;;;;;;;0.11;83.46;97641.70;105651;1257;73867;-26
2023/03/10 03:11:30;;;;;;;5.50;3.20;;;;;;;0.61;80.59;97647.00;105842;1253;61857;-25
2023/03/10 03:13:59;;;;;;;34.20;16.20;;;;;;;0.59;79.56;97655.67;105467;1258;61693;-25
2023/03/10 03:16:29;;;;;;;10.80;4.90;;;;;;;0.70;79.82;97651.41;105693;1254;75180;-26
2023/03/10 03:18:59;;;;;;;5.40;2.40;;;;;;;0.66;80.13;97648.75;105711;1254;75800;-26
2023/03/10 03:21:29;;;;;;;3.80;2.30;;;;;;;0.52;80.10;97641.74;105572;1256;74134;-26
2023/03/10 03:23:58;;;;;;;2.90;1.80;;;;;;;0.33;80.53;97633.38;105656;1254;61192;-25
2023/03/10 03:26:27;;;;;;;7.50;3.70;;;;;;;0.11;81.21;97625.31;105679;1257;61723;-25
2023/03/10 03:29:04;;;;;;;3.50;2.20;;;;;;;0.24;82.12;97619.95;105806;1253;75325;-25
2023/03/10 03:31:35;;;;;;;5.00;2.20;;;;;;;1.05;81.36;97620.13;105832;1254;76315;-25
2023/03/10 03:34:19;;;;;;;2.90;1.70;;;;;;;1.42;79.73;97611.23;105660;1254;74137;-25
2023/03/10 03:36:49;;;;;;;3.00;2.10;;;;;;;1.29;78.95;97602.51;105587;1258;61710;-25
2023/03/10 03:39:24;;;;;;;3.70;2.00;;;;;;;0.99;79.37;97604.43;105632;1254;61829;-25
2023/03/10 03:41:56;;;;;;;7.40;4.30;;;;;;;0.71;79.96;97606.56;105662;1254;75192;-25
2023/03/10 03:44:27;;;;;;;11.40;6.40;;;;;;;0.32;81.93;97619.62;105513;1254;76256;-26
2023/03/10 03:46:56;;;;;;;62.00;22.60;;;;;;;0.03;83.15;97630.95;105622;1257;74126;-25
2023/03/10 03:49:25;;;;;;;21.10;8.00;;;;;;;0.04;83.77;97633.42;105753;1253;62699;-25
2023/03/10 03:51:56;;;;;;;40.80;13.80;;;;;;;0.64;83.59;97634.35;105789;1257;61699;-25
2023/03/10 03:54:25;;;;;;;63.40;20.80;;;;;;;1.38;82.06;97632.70;105719;1254;75364;-25
2023/03/10 03:56:54;;;;;;;32.10;11.70;;;;;;;1.58;80.79;97630.97;105834;1254;74987;-26
2023/03/10 03:59:22;;;;;;;17.30;7.20;;;;;;;1.45;79.80;97630.36;105694;1259;74178;-25
2023/03/10 04:01:52;;;;;;;15.30;5.50;;;;;;;1.25;79.99;97633.71;105811;1256;61137;-25
2023/03/10 04:04:20;;;;;;;10.40;5.00;;;;;;;1.02;80.25;97630.23;105836;1254;60991;-25
2023/03/10 04:06:49;;;;;;;8.40;3.80;;;;;;;0.79;80.61;97628.09;105470;1254;75338;-25
2023/03/10 04:09:18;;;;;;;9.80;3.90;;;;;;;0.61;80.81;97634.86;105612;1258;75412;-26
2023/03/10 04:11:47;;;;;;;7.10;2.20;;;;;;;0.46;81.24;97631.04;105723;1259;74199;-25
2023/03/10 04:14:16;;;;;;;4.60;2.00;;;;;;;0.90;81.74;97638.54;105751;1253;61039;-25
2023/03/10 04:16:45;;;;;;;3.70;2.00;;;;;;;1.52;80.55;97638.41;105809;1254;61049;-25
2023/03/10 04:19:13;;;;;;;4.90;2.20;;;;;;;1.62;79.90;97638.08;105645;1254;75318;-25
2023/03/10 04:21:44;;;;;;;3.90;2.30;;;;;;;1.49;79.76;97631.42;105766;1258;74701;-25
2023/03/10 04:24:13;;;;;;;9.50;2.70;;;;;;;1.25;79.94;97633.02;105827;1254;74214;-25
2023/03/10 04:26:42;;;;;;;3.80;2.60;;;;;;;1.02;80.45;97636.24;105770;1254;61125;-25
2023/03/10 04:29:12;;;;;;;4.30;2.60;;;;;;;0.76;80.93;97631.89;105726;1254;62112;-25
2023/03/10 04:31:42;;;;;;;5.70;2.50;;;;;;;0.56;81.19;97630.58;105700;1259;74040;-25
2023/03/10 04:34:18;;;;;;;3.00;1.90;;;;;;;0.44;81.81;97627.04;105684;1254;75663;-26
2023/03/10 04:36:46;;;;;;;3.10;2.20;;;;;;;0.98;82.28;97634.95;105656;1254;74165;-25
2023/03/10 04:39:15;;;;;;;5.40;2.60;;;;;;;1.67;81.09;97642.75;105594;1254;61838;-25
2023/03/10 04:41:43;;;;;;;5.00;1.80;;;;;;;1.79;80.10;97638.68;105614;1255;61984;-25
2023/03/10 04:44:17;;;;;;;2.90;2.20;;;;;;;1.58;79.33;97624.02;105654;1254;75566;-25
2023/03/10 04:46:59;;;;;;;2.40;2.00;;;;;;;1.25;79.97;97631.96;105820;1257;75732;-26
2023/03/10 04:49:29;;;;;;;3.50;2.00;;;;;;;1.04;80.65;97635.76;105835;1254;74155;-25
2023/03/10 04:51:57;;;;;;;4.90;2.70;;;;;;;0.79;81.21;97623.99;105727;1253;61113;-26
2023/03/10 04:54:26;;;;;;;2.80;1.70;;;;;;;0.55;82.22;97633.00;105784;1257;61818;-25
2023/03/10 04:56:57;;;;;;;4.40;2.20;;;;;;;1.05;82.51;97641.65;105630;1254;75365;-25
2023/03/10 04:59:26;;;;;;;2.80;2.00;;;;;;;1.64;81.24;97640.19;105750;1254;75853;-26
2023/03/10 05:01:55;;;;;;;4.90;2.50;;;;;;;1.66;80.20;97640.56;105817;1254;73075;-26
2023/03/10 05:04:24;;;;;;;3.20;2.50;;;;;;;1.42;80.27;97626.09;105677;1259;61916;-26
2023/03/10 05:06:53;;;;;;;3.20;2.40;;;;;;;1.15;81.01;97631.08;105860;1252;61560;-26
2023/03/10 05:09:26;;;;;;;3.80;2.60;;;;;;;0.92;81.90;97634.78;105753;1254;74381;-26
2023/03/10 05:11:55;;;;;;;3.70;2.40;;;;;;;0.68;82.21;97624.70;105757;1254;75620;-26
2023/03/10 05:14:25;;;;;;;3.20;2.10;;;;;;;0.69;83.30;97624.67;105742;1254;74016;-26
2023/03/10 05:16:54;;;;;;;4.20;2.70;;;;;;;1.25;82.88;97633.34;105695;1260;61609;-25
2023/03/10 05:19:24;;;;;;;2.80;2.30;;;;;;;1.50;81.78;97632.04;105780;1257;61879;-25
2023/03/10 05:21:54;;;;;;;4.10;2.60;;;;;;;1.44;81.50;97634.67;105703;1254;74430;-26
2023/03/10 05:24:23;;;;;;;3.30;2.60;;;;;;;1.26;81.68;97643.54;105726;1254;75918;-26
2023/03/10 05:26:52;;;;;;;3.10;2.80;;;;;;;1.03;82.05;97641.29;105721;1256;74126;-25
2023/03/10 05:29:20;;;;;;;4.10;2.50;;;;;;;0.79;82.60;97645.17;105713;1254;62559;-26
2023/03/10 05:31:52;;;;;;;4.20;2.20;;;;;;;0.75;83.54;97646.61;105796;1257;61862;-25
2023/03/10 05:34:30;;;;;;;3.40;2.10;;;;;;;1.54;82.80;97648.55;105800;1254;75118;-26
2023/03/10 05:37:00;;;;;;;2.70;2.30;;;;;;;1.91;80.91;97653.42;105842;1258;74692;-26
2023/03/10 05:39:29;;;;;;;4.60;3.00;;;;;;;1.81;80.26;97656.48;105838;1254;72959;-26
2023/03/10 05:42:00;;;;;;;3.70;2.90;;;;;;;1.58;80.94;97651.39;105748;1254;61894;-26
2023/03/10 05:44:31;;;;;;;5.40;3.30;;;;;;;1.28;81.85;97662.36;105643;1254;61083;-26
2023/03/10 05:47:00;;;;;;;3.60;3.10;;;;;;;1.03;82.96;97670.48;105747;1256;75085;-25
2023/03/10 05:49:30;;;;;;;1.80;1.70;;;;;;;0.88;83.76;97676.90;105732;1253;76012;-25
2023/03/10 05:51:58;;;;;;;5.30;2.40;;;;;;;1.31;83.72;97677.09;105609;1254;73268;-26
2023/03/10 05:54:27;;;;;;;4.00;2.60;;;;;;;1.75;82.43;97666.02;105693;1254;61150;-25
2023/03/10 05:56:56;;;;;;;4.20;2.90;;;;;;;1.77;81.81;97651.52;105702;1259;61924;-26
2023/03/10 05:59:26;;;;;;;4.30;2.60;;;;;;;1.57;81.74;97651.09;105817;1254;75364;-26
2023/03/10 06:01:55;;;;;;;5.30;4.40;;;;;;;1.33;82.33;97659.48;105825;1254;75953;-25
2023/03/10 06:04:24;;;;;;;8.30;4.50;;;;;;;1.19;83.02;97661.79;105724;1257;74453;-25
2023/03/10 06:06:54;;;;;;;4.70;3.40;;;;;;;1.25;83.86;97657.11;105744;1257;62410;-25
2023/03/10 06:09:23;;;;;;;7.30;4.60;;;;;;;1.84;82.84;97650.46;105605;1256;61125;-26
2023/03/10 06:11:57;;;;;;;6.20;4.60;;;;;;;2.10;81.57;97650.27;105747;1254;75171;-25
2023/03/10 06:14:26;;;;;;;4.00;3.10;;;;;;;2.00;81.12;97653.52;105863;1256;74233;-26
2023/03/10 06:16:55;;;;;;;3.00;2.10;;;;;;;1.90;81.45;97655.71;105719;1258;74100;-25
2023/03/10 06:19:25;;;;;;;2.20;2.00;;;;;;;1.71;81.97;97657.71;105796;1256;61112;-25
2023/03/10 06:21:53;;;;;;;2.20;1.70;;;;;;;1.55;82.48;97668.15;105798;1253;61046;-25
2023/03/10 06:24:22;;;;;;;1.90;1.40;;;;;;;1.84;82.27;97672.76;105812;1254;75499;-25
2023/03/10 06:26:50;;;;;;;1.90;1.60;;;;;;;2.36;80.44;97674.52;105835;1254;75132;-26
2023/03/10 06:29:19;;;;;;;2.90;2.20;;;;;;;2.45;79.56;97664.98;105780;1254;74159;-25
2023/03/10 06:31:51;;;;;;;4.00;2.30;;;;;;;2.30;79.74;97661.55;105802;1254;61904;-25
2023/03/10 06:34:20;;;;;;;7.70;4.00;;;;;;;2.10;79.99;97659.52;105817;1257;61795;-25
2023/03/10 06:36:48;;;;;;;4.90;3.50;;;;;;;1.87;80.36;97657.45;105796;1254;75351;-26
2023/03/10 06:39:17;;;;;;;4.10;2.10;;;;;;;1.74;81.16;97650.48;105718;1254;75856;-26
2023/03/10 06:41:45;;;;;;;3.40;2.10;;;;;;;2.09;81.12;97661.27;105778;1257;74105;-26
2023/03/10 06:44:17;;;;;;;5.30;3.60;;;;;;;2.50;79.16;97672.20;105841;1254;61822;-26
2023/03/10 06:46:46;;;;;;;4.60;3.00;;;;;;;2.54;78.48;97685.13;105802;1254;61090;-25
2023/03/10 06:49:15;;;;;;;5.20;2.90;;;;;;;2.39;78.59;97678.95;105712;1254;75016;-25
2023/03/10 06:51:44;;;;;;;4.10;3.10;;;;;;;2.23;79.45;97669.91;105734;1255;75588;-26
2023/03/10 06:54:12;;;;;;;3.40;2.10;;;;;;;2.05;80.00;97672.52;105515;1254;74185;-26
2023/03/10 06:56:41;;;;;;;3.00;2.50;;;;;;;2.06;80.20;97668.72;105632;1259;62446;-25
2023/03/10 06:59:10;;;;;;;2.30;2.00;;;;;;;2.63;79.34;97663.40;105709;1255;61778;-25
2023/03/10 07:01:39;;;;;;;2.60;1.90;;;;;;;2.89;78.36;97670.62;105829;1254;75290;-25
2023/03/10 07:04:09;;;;;;;2.10;1.80;;;;;;;2.84;77.72;97674.29;105825;1253;75811;-26
2023/03/10 07:06:38;;;;;;;5.30;2.70;;;;;;;2.61;77.92;97677.38;105733;1254;73619;-25
2023/03/10 07:09:20;;;;;;;3.00;2.30;;;;;;;2.42;78.98;97679.73;105696;1254;61055;-25
2023/03/10 07:11:49;;;;;;;2.50;2.10;;;;;;;2.27;79.25;97671.05;105657;1259;61501;-25
2023/03/10 07:14:18;;;;;;;4.60;2.60;;;;;;;2.39;80.30;97660.62;105759;1254;75465;-25
2023/03/10 07:16:46;;;;;;;4.60;2.40;;;;;;;3.06;78.86;97659.51;105793;1254;75770;-25
2023/03/10 07:19:15;;;;;;;2.70;2.20;;;;;;;3.28;76.79;97658.42;105853;1254;74200;-25
2023/03/10 07:21:44;;;;;;;4.00;3.20;;;;;;;3.06;76.36;97645.05;105795;1254;61927;-25
2023/03/10 07:24:13;;;;;;;3.20;2.90;;;;;;;2.74;77.44;97619.95;105580;1257;61852;-25
2023/03/10 07:26:41;;;;;;;2.60;2.00;;;;;;;2.33;78.46;97604.66;105544;1255;74366;-25
2023/03/10 07:29:11;;;;;;;2.10;1.80;;;;;;;2.09;79.73;97610.27;105609;1259;75834;-25
2023/03/10 07:31:39;;;;;;;5.40;3.80;;;;;;;2.27;80.37;97615.72;105751;1254;73743;-25
2023/03/10 07:34:09;;;;;;;2.60;2.10;;;;;;;2.81;78.86;97619.22;105757;1257;61175;-25
2023/03/10 07:36:38;;;;;;;3.90;3.00;;;;;;;2.93;77.98;97624.01;105660;1259;61866;-25
2023/03/10 07:39:07;;;;;;;3.40;2.90;;;;;;;2.91;78.50;97627.49;105625;1254;75379;-25
2023/03/10 07:41:35;;;;;;;5.10;3.30;;;;;;;2.69;78.56;97625.59;105538;1257;75880;-25
2023/03/10 07:44:05;;;;;;;3.40;3.10;;;;;;;2.46;79.42;97619.69;105608;1254;73943;-25
2023/03/10 07:46:33;;;;;;;4.00;2.40;;;;;;;2.39;80.73;97615.75;105469;1254;61703;-25
2023/03/10 07:49:05;;;;;;;9.20;3.50;;;;;;;2.90;80.17;97618.31;105524;1259;61613;-25
2023/03/10 07:51:34;;;;;;;4.70;3.50;;;;;;;3.01;77.47;97615.56;105499;1257;73208;-25
2023/03/10 07:54:03;;;;;;;5.00;4.00;;;;;;;2.88;77.98;97614.11;105326;1261;76078;-25
2023/03/10 07:56:32;;;;;;;4.40;3.40;;;;;;;2.74;79.00;97604.66;105579;1253;73997;-25
2023/03/10 07:59:01;;;;;;;5.40;3.40;;;;;;;2.53;79.50;97607.73;105820;1254;61291;-25
2023/03/10 08:01:34;;;;;;;3.40;2.40;;;;;;;2.52;81.49;97607.45;105504;1254;62054;-25
2023/03/10 08:04:03;;;;;;;3.80;3.00;;;;;;;3.10;80.33;97612.86;105551;1254;75370;-25
2023/03/10 08:06:34;;;;;;;3.20;2.40;;;;;;;3.25;78.49;97617.44;105558;1255;75806;-25
2023/03/10 08:09:02;;;;;;;3.20;2.70;;;;;;;3.16;78.39;97625.83;105480;1254;72889;-26
2023/03/10 08:11:32;;;;;;;3.40;2.90;;;;;;;2.97;78.87;97615.36;105530;1254;61093;-24
2023/03/10 08:14:01;;;;;;;3.10;2.60;;;;;;;2.75;79.31;97620.70;105550;1257;61635;-24
2023/03/10 08:16:30;;;;;;;2.70;2.40;;;;;;;2.67;80.03;97630.02;105556;1254;75346;-24
2023/03/10 08:18:59;;;;;;;3.60;2.70;;;;;;;3.20;79.24;97635.80;105494;1259;74681;-24
2023/03/10 08:21:28;;;;;;;3.80;3.30;;;;;;;3.54;77.74;97657.35;105796;1253;74180;-25
2023/03/10 08:23:59;;;;;;;4.00;2.80;;;;;;;3.30;76.11;97657.56;105486;1258;61167;-25
2023/03/10 08:32:50;;;;;;;4.10;2.40;;;;;;;2.77;79.46;97644.05;102688;1290;600033;-23
2023/03/10 08:35:19;;;;;;;2.50;1.90;;;;;;;3.19;79.03;97647.01;105200;1263;61946;-26
2023/03/10 08:37:51;;;;;;;2.40;2.20;;;;;;;3.39;77.46;97648.85;104936;1264;61194;-25
2023/03/10 08:40:23;;;;;;;2.70;2.30;;;;;;;3.33;77.51;97646.39;104866;1271;73558;-26
2023/03/10 08:42:52;;;;;;;5.10;2.40;;;;;;;3.13;77.80;97637.17;105221;1263;75786;-26
2023/03/10 08:45:20;;;;;;;3.80;2.40;;;;;;;2.89;78.61;97631.19;103759;1263;1974150;-26
2023/03/10 08:47:49;;;;;;;4.10;2.50;;;;;;;2.74;79.17;97628.98;104894;1262;61002;-26
2023/03/10 08:50:19;;;;;;;8.30;5.00;;;;;;;3.08;79.13;97626.73;105200;1265;61141;-25
2023/03/10 08:52:47;;;;;;;3.00;2.40;;;;;;;3.48;78.32;97634.60;105275;1265;73846;-26
2023/03/10 08:55:17;;;;;;;4.00;2.50;;;;;;;3.49;77.04;97635.77;105238;1263;75791;-26
2023/03/10 08:57:45;;;;;;;3.00;2.70;;;;;;;3.28;77.54;97635.91;105186;1262;74303;-25
2023/03/10 09:00:15;;;;;;;3.70;2.50;;;;;;;3.00;77.83;97637.25;105153;1264;61279;-26
2023/03/10 09:02:44;;;;;;;3.20;2.40;;;;;;;2.81;79.31;97637.55;105012;1263;62697;-26
2023/03/10 09:05:13;;;;;;;3.40;2.70;;;;;;;2.96;79.29;97632.77;105282;1263;74609;-26
2023/03/10 09:07:46;;;;;;;3.50;2.20;;;;;;;3.42;78.70;97630.26;105146;1267;75642;-25
2023/03/10 09:10:35;;;;;;;3.10;2.60;;;;;;;3.53;77.64;97627.17;105159;1263;74378;-25
2023/03/10 09:13:04;;;;;;;3.00;2.70;;;;;;;3.39;78.16;97627.40;104966;1262;61654;-25
2023/03/10 09:15:41;;;;;;;3.20;2.80;;;;;;;3.27;78.56;97627.45;105205;1265;61946;-26
2023/03/10 09:18:12;;;;;;;3.10;2.40;;;;;;;3.14;79.10;97622.53;105215;1263;73893;-25
2023/03/10 09:20:40;;;;;;;4.10;2.70;;;;;;;3.40;79.31;97621.17;104850;1268;75814;-25
2023/03/10 09:23:10;;;;;;;3.50;3.10;;;;;;;3.75;77.37;97618.34;105234;1263;74178;-25
2023/03/10 09:25:39;;;;;;;2.90;2.60;;;;;;;3.83;77.12;97621.40;105030;1263;61165;-25
2023/03/10 09:28:09;;;;;;;4.40;3.10;;;;;;;3.64;77.23;97617.83;105318;1263;61163;-26
2023/03/10 09:30:39;;;;;;;4.10;3.20;;;;;;;3.46;77.56;97615.88;105266;1265;74391;-26
2023/03/10 09:33:16;;;;;;;3.20;2.90;;;;;;;3.30;78.41;97621.86;105110;1260;75686;-26
2023/03/10 09:35:45;;;;;;;9.50;2.90;;;;;;;3.59;78.90;97621.78;105260;1260;74593;-26
2023/03/10 09:38:30;;;;;;;4.80;3.90;;;;;;;4.27;78.10;97618.84;105494;1260;62061;-25
2023/03/10 09:40:58;;;;;;;4.30;3.60;;;;;;;4.67;76.91;97615.42;105262;1263;61916;-25
2023/03/10 09:43:31;;;;;;;4.20;3.70;;;;;;;4.90;76.47;97611.45;105496;1259;74549;-25
2023/03/10 09:46:19;;;;;;;4.80;4.10;;;;;;;5.05;75.28;97607.70;105233;1260;74826;-25
2023/03/10 09:49:03;;;;;;;4.30;3.60;;;;;;;5.25;76.35;97603.50;105253;1268;73853;-25
2023/03/10 09:51:32;;;;;;;3.90;3.60;;;;;;;5.54;74.63;97596.64;105277;1260;61277;-24
2023/03/10 09:54:25;;;;;;;5.70;3.90;;;;;;;5.56;74.38;97586.32;105499;1261;61056;-24
2023/03/10 09:56:54;;;;;;;3.80;3.10;;;;;;;5.47;73.55;97582.95;105267;1260;74452;-25
2023/03/10 09:59:29;;;;;;;3.90;3.50;;;;;;;5.43;73.96;97582.89;105198;1260;74845;-25
2023/03/10 10:01:58;;;;;;;4.30;3.70;;;;;;;5.61;74.33;97586.08;105259;1260;74434;-25
2023/03/10 10:04:30;;;;;;;5.90;3.60;;;;;;;5.76;73.71;97583.21;105242;1260;61557;-25
2023/03/10 10:07:01;;;;;;;6.50;4.90;;;;;;;5.85;72.89;97574.44;105143;1267;61853;-25
2023/03/10 10:09:42;;;;;;;6.30;4.20;;;;;;;6.00;73.75;97573.44;105008;1267;74461;-25
2023/03/10 10:12:15;;;;;;;6.50;5.40;;;;;;;6.45;72.48;97576.48;105245;1260;75643;-25
2023/03/10 10:14:44;;;;;;;4.40;3.80;;;;;;;6.68;69.90;97564.58;105166;1260;73191;-25
2023/03/10 10:17:55;;;;;;;5.00;4.00;;;;;;;6.98;71.58;97567.67;105235;1260;61831;-25
2023/03/10 10:20:52;;;;;;;6.10;4.10;;;;;;;7.56;69.58;97563.98;105154;1262;61713;-25
2023/03/10 10:23:42;;;;;;;4.70;3.40;;;;;;;7.92;68.50;97560.64;105475;1251;74586;-25
2023/03/10 10:26:14;;;;;;;4.60;4.00;;;;;;;8.27;67.43;97549.60;105613;1259;75597;-26
2023/03/10 10:28:47;;;;;;;5.70;3.50;;;;;;;8.13;66.62;97540.90;105639;1251;73897;-25
2023/03/10 10:31:20;;;;;;;3.20;2.80;;;;;;;7.89;65.97;97535.23;105345;1253;61079;-25
2023/03/10 10:34:00;;;;;;;10.40;6.30;;;;;;;7.72;67.20;97523.46;105586;1259;61567;-25
2023/03/10 10:36:35;;;;;;;7.60;5.00;;;;;;;7.74;68.20;97519.46;105806;1251;74597;-25
2023/03/10 10:39:19;;;;;;;6.70;5.10;;;;;;;7.80;66.29;97523.48;105613;1254;75912;-25
2023/03/10 10:41:48;;;;;;;;;;;;;;;7.95;67.46;97527.10;105697;1253;73520;-25
2023/03/10 10:44:17;;;;;;;5.30;3.40;;;;;;;8.05;67.51;97517.62;105901;1256;61127;-25
2023/03/10 10:46:56;;;;;;;6.00;4.30;;;;;;;8.16;66.93;97520.09;105968;1251;61131;-25
2023/03/10 10:49:26;;;;;;;5.10;3.60;;;;;;;8.10;65.64;97508.00;105748;1251;73325;-26
2023/03/10 10:52:05;;;;;;;7.80;5.00;;;;;;;7.77;66.69;97511.08;105729;1257;75848;-26
2023/03/10 10:54:38;;;;;;;9.10;4.50;;;;;;;7.67;67.60;97508.27;105689;1251;74170;-25
2023/03/10 10:57:18;;;;;;;7.30;5.00;;;;;;;7.81;68.32;97506.91;105701;1251;61926;-26
2023/03/10 10:59:47;;;;;;;7.00;5.60;;;;;;;8.06;66.69;97496.95;105748;1252;61187;-25
2023/03/10 11:02:21;;;;;;;5.90;5.30;;;;;;;8.31;66.85;97496.86;105980;1251;74272;-26
2023/03/10 11:04:50;;;;;;;5.20;3.80;;;;;;;8.67;66.93;97498.73;105521;1259;76287;-26
2023/03/10 11:07:24;;;;;;;5.20;4.70;;;;;;;8.93;65.89;97497.25;105856;1255;74345;-26
2023/03/10 11:09:59;;;;;;;4.70;3.70;;;;;;;9.18;64.85;97500.29;105618;1251;61618;-26
2023/03/10 11:12:34;;;;;;;10.00;6.20;;;;;;;9.44;64.58;97494.55;105920;1251;61118;-26
2023/03/10 11:15:28;;;;;;;6.40;4.20;;;;;;;9.68;64.01;97486.45;105648;1254;74438;-25
2023/03/10 11:18:09;;;;;;;4.80;3.70;;;;;;;9.69;63.65;97478.38;105762;1251;75996;-25
2023/03/10 11:20:52;;;;;;;3.20;2.90;;;;;;;9.71;64.21;97465.52;105642;1259;73834;-25
2023/03/10 11:23:37;;;;;;;5.50;3.70;;;;;;;9.79;63.72;97468.22;105595;1257;61091;-25
2023/03/10 11:26:21;;;;;;;;;;;;;;;9.68;63.56;97465.48;105692;1251;61227;-25
2023/03/10 11:28:59;;;;;;;5.00;4.00;;;;;;;9.71;63.27;97470.44;105722;1254;74723;-26
2023/03/10 11:31:39;;;;;;;4.00;3.40;;;;;;;9.37;63.33;97461.86;105450;1252;75798;-26
2023/03/10 11:34:29;;;;;;;3.70;3.10;;;;;;;9.39;64.31;97470.54;105557;1252;74458;-26
2023/03/10 11:36:59;;;;;;;3.60;3.10;;;;;;;9.75;64.92;97468.22;105699;1258;61126;-26
2023/03/10 11:39:37;;;;;;;4.30;3.90;;;;;;;10.11;63.74;97457.85;105745;1252;61655;-26
2023/03/10 11:42:39;;;;;;;3.40;2.80;;;;;;;10.14;62.67;97452.10;105756;1251;74550;-24
2023/03/10 11:45:33;;;;;;;3.50;3.10;;;;;;;9.99;63.85;97449.81;105745;1259;75853;-25
2023/03/10 11:48:23;;;;;;;3.70;2.60;;;;;;;10.06;63.52;97443.19;105794;1251;73162;-25
2023/03/10 11:51:00;;;;;;;4.70;3.90;;;;;;;9.96;63.67;97444.45;105969;1253;61981;-24
2023/03/10 11:53:42;;;;;;;3.80;3.10;;;;;;;9.89;64.26;97444.17;105710;1260;61849;-25
2023/03/10 11:56:13;;;;;;;3.60;3.10;;;;;;;9.88;64.62;97440.77;105802;1257;73549;-25
2023/03/10 11:58:58;;;;;;;4.00;3.60;;;;;;;9.93;65.09;97431.77;105728;1259;75926;-25
2023/03/10 12:01:31;;;;;;;4.30;3.00;;;;;;;10.04;64.69;97427.51;105741;1254;73962;-25